• Join FlightAware (Why Join?)
  • Login
  • US Flag 
06:15AM EDT


 

Airport Tracker/Info


-or-


 

Live Flight TrackerFlight Track Log ✈ CES5862 ✈ 12-Jul-2013 ✈ ZUJZ / JZH - ZUUU / CTU

Flight Track Log - Related Links

Times and Time Zones

All times are in EDT time to prevent confusion due to time zone crossing. See the CES5862 flight status page for this flight to view local times or setup timezone preferences in your user account.

Time Position Orientation Groundspeed Altitude Reporting Facility
EDT Latitude Longitude Course Direction KTS MPH feet Rate Location/Type
04:51AM 32.0010 104.3010 124° Southeast 379 436 24,600  Level FlightAware
04:51AM 31.9870 104.3180 134° Southeast 377 434 24,600  Level FlightAware
04:51AM 31.9420 104.3410 157° South 372 428 24,600  Level FlightAware
04:52AM 31.8720 104.3450 177° South 372 428 24,600  Level FlightAware
04:53AM 31.8040 104.3480 178° South 371 427 24,600 -540 Level FlightAware
04:53AM 31.7280 104.3520 177° South 368 423 23,900 -1,260 Descending FlightAware
04:54AM 31.6530 104.3560 177° South 366 421 22,800 -1,500 Descending FlightAware
04:55AM 31.5820 104.3590 178° South 361 415 21,800 -1,500 Descending FlightAware
04:55AM 31.5130 104.3370 195° South 355 409 20,700 -1,260 Descending FlightAware
04:56AM 31.4570 104.2940 213° Southwest 353 406 20,100 -1,020 Descending FlightAware
04:57AM 31.4020 104.2540 212° Southwest 351 404 19,400 -1,080 Descending FlightAware
04:58AM 31.3470 104.2110 214° Southwest 340 391 18,700 -540 Descending FlightAware
04:58AM 31.2890 104.1670 213° Southwest 335 386 18,700  Level FlightAware
04:59AM 31.2320 104.1240 213° Southwest 333 383 18,700  Level FlightAware
05:00AM 31.1840 104.0880 213° Southwest 334 384 18,700  Level FlightAware
05:00AM 31.1320 104.0490 213° Southwest 334 384 18,700 -600 Level FlightAware
05:01AM 31.0800 104.0100 213° Southwest 332 382 17,900 -1,380 Descending FlightAware
05:02AM 31.0290 103.9710 213° Southwest 327 376 16,900 -1,500 Descending FlightAware
05:02AM 30.9780 103.9330 213° Southwest 323 372 15,900 -1,500 Descending FlightAware
05:03AM 30.9280 103.8960 212° Southwest 318 366 14,900 -1,440 Descending FlightAware
05:04AM 30.8800 103.8590 213° Southwest 308 354 14,000 -1,380 Descending FlightAware
05:04AM 30.8270 103.8200 212° Southwest 305 351 13,000 -900 Descending FlightAware
05:05AM 30.7780 103.7840 212° Southwest 305 351 12,800 -180 Descending FlightAware
05:06AM 30.7250 103.7440 213° Southwest 295 339 12,800  Level FlightAware
05:06AM 30.6820 103.7110 213° Southwest 263 303 12,800  Level FlightAware
05:07AM 30.6560 103.6950 208° Southwest 259 298 12,800  Level FlightAware
05:07AM 30.6440 103.6930 188° South 259 298 12,800 -1,740 Level FlightAware
05:08AM 30.5900 103.7140 161° South 289 333 11,200 -2,220 Descending FlightAware
05:08AM 30.5370 103.7390 158° South 307 353 9,700 -1,680 Descending FlightAware
05:09AM 30.5020 103.7550 159° South 285 328 9,300 -540 Descending FlightAware
05:09AM 30.4690 103.7700 159° South 254 292 9,200 -180 Descending FlightAware
05:10AM 30.4580 103.7730 167° South 244 281 9,200 -300 Level FlightAware
05:10AM 30.4260 103.7610 198° South 215 247 9,000 -780 Descending FlightAware
05:10AM 30.4020 103.7500 202° Southwest 215 247 8,500 -1,200 Descending FlightAware
05:11AM 30.3710 103.7350 203° Southwest 213 245 7,800 -1,200 Descending FlightAware
05:12AM 30.3420 103.7220 201° Southwest 208 239 7,200 -840 Descending FlightAware
05:12AM 30.3200 103.7110 203° Southwest 193 222 7,000 -600 Descending FlightAware
05:12AM 30.3060 103.7060 197° South 186 214 6,800 -840 Descending FlightAware
05:13AM 30.2880 103.7190 148° Southeast 173 199 6,400 -900 Descending FlightAware
05:13AM 30.2850 103.7300 108° East 173 199 6,200 -780 Descending FlightAware
05:13AM 30.2780 103.7550 108° East 174 200 5,900 -600 Descending FlightAware
05:14AM 30.2850 103.7730 66° East 172 198 5,700 -540 Descending FlightAware
05:14AM 30.2910 103.7840 58° Northeast 172 198 5,600 -300 Descending FlightAware
05:14AM 30.3070 103.8040 47° Northeast 188 216 5,500 -300 Descending FlightAware
05:15AM 30.3170 103.8160 46° Northeast 190 219 5,400 -480 Descending FlightAware
05:15AM 30.3250 103.8240 41° Northeast 191 220 5,300 -480 Descending FlightAware
05:15AM 30.3380 103.8300 22° Northeast 192 221 5,200 -240 Descending FlightAware
05:15AM 30.3480 103.8360 27° Northeast 191 220 5,200 -300 Level FlightAware
05:16AM 30.3670 103.8540 39° Northeast 190 219 5,000 -600 Descending FlightAware
05:16AM 30.3830 103.8720 44° Northeast 179 206 4,700 -900 Descending FlightAware
05:17AM 30.3950 103.8790 27° Northeast 170 196 4,400 -960 Descending FlightAware
05:17AM 30.4150 103.8880 21° North 153 176 4,000 -780 Descending FlightAware
05:18AM 30.4320 103.8960 22° Northeast 141 162 3,700 -660 Descending FlightAware
05:18AM 30.4490 103.9040 22° Northeast 140 161 3,400 -780 Descending FlightAware
05:18AM 30.4560 103.9070 20° North 140 161 3,200 -840 Descending FlightAware
05:19AM 30.4710 103.9140 22° Northeast 140 161 2,900 -720 Descending FlightAware
05:19AM 30.4880 103.9220 22° Northeast 139 160 2,600 -660 Descending FlightAware
05:20AM 30.5040 103.9290 21° North 140 161 2,300 -780 Descending FlightAware
05:20AM 30.5220 103.9380 23° Northeast 142 163 1,900 -840 Descending FlightAware
05:20AM 30.5350 103.9440 22° Northeast 82 94 -4,260 Descending FlightAware
05:21AM 30.5420 103.9460 14° North 23 26  Level FlightAware
05:21AM 30.5440 103.9460 360° North 33 38  Level FlightAware
05:24AM 30.5785 103.9471 North  Level Estimated
05:25AM 30.5785 103.9471 240° Southwest  Level Estimated